Time;durP1;ratioP1;P1;durP2;ratioP2;P2;SDS_P1;SDS_P2;PMS_P1;PMS_P2;Temp;Humidity;BMP_temperature;BMP_pressure;BME280_temperature;BME280_humidity;BME280_pressure;Samples;Min_cycle;Max_cycle;Signal;HPM_P1;HPM_P2
2023/09/07 00:04:57;;;;;;;5.75;4.57;;;15.00;99.90;;;;;;10246706;28;20257;-85
2023/09/07 00:10:00;;;;;;;6.75;6.10;;;14.90;99.90;;;;;;10230454;29;20826;-85
2023/09/07 00:15:03;;;;;;;6.50;5.60;;;14.90;99.90;;;;;;10246610;29;20703;-85
2023/09/07 00:20:14;;;;;;;7.55;5.68;;;14.80;99.90;;;;;;10247369;28;20245;-85
2023/09/07 00:25:16;;;;;;;10.95;6.22;;;14.80;99.90;;;;;;10229980;29;20265;-84
2023/09/07 00:30:19;;;;;;;9.45;6.13;;;14.70;99.90;;;;;;10246862;29;20237;-85
2023/09/07 00:35:21;;;;;;;7.40;6.22;;;14.70;99.90;;;;;;10229480;28;20340;-85
2023/09/07 00:40:25;;;;;;;11.27;6.28;;;14.60;99.90;;;;;;10246063;29;20237;-84
2023/09/07 00:45:28;;;;;;;10.15;6.47;;;14.60;99.90;;;;;;10228645;29;20719;-85
2023/09/07 00:50:31;;;;;;;11.15;6.40;;;14.60;99.90;;;;;;10245885;29;20730;-84
2023/09/07 00:55:35;;;;;;;7.25;5.95;;;14.60;99.90;;;;;;10229336;29;20250;-85
2023/09/07 01:00:39;;;;;;;8.82;6.18;;;14.60;99.90;;;;;;10228012;29;21016;-85
2023/09/07 01:05:52;;;;;;;5.28;3.88;;;14.50;99.90;;;;;;10245341;29;20269;-85
2023/09/07 01:10:54;;;;;;;7.55;6.55;;;14.60;99.90;;;;;;10228154;29;20237;-85
2023/09/07 01:15:57;;;;;;;8.60;6.25;;;14.60;99.90;;;;;;10233641;28;20648;-84
2023/09/07 01:21:03;;;;;;;8.10;6.85;;;14.50;99.90;;;;;;10240991;29;20308;-84
2023/09/07 01:26:08;;;;;;;7.30;6.60;;;14.40;99.90;;;;;;10240207;28;20265;-85
2023/09/07 01:31:11;;;;;;;7.80;6.40;;;14.40;99.90;;;;;;10247729;28;20303;-85
2023/09/07 01:36:14;;;;;;;11.98;8.68;;;14.50;99.90;;;;;;10240911;28;20714;-84
2023/09/07 01:41:17;;;;;;;8.57;6.40;;;14.30;99.90;;;;;;10240605;28;20241;-85
2023/09/07 01:46:19;;;;;;;15.25;7.10;;;14.30;99.90;;;;;;10241116;28;20324;-85
2023/09/07 01:51:22;;;;;;;11.20;8.43;;;14.30;99.90;;;;;;10240852;29;20214;-85
2023/09/07 01:56:24;;;;;;;9.52;7.97;;;14.10;99.90;;;;;;10240638;29;20242;-85
2023/09/07 02:01:31;;;;;;;9.00;6.85;;;14.00;99.90;;;;;;10240916;28;20321;-85
2023/09/07 02:06:34;;;;;;;11.93;7.45;;;14.00;99.90;;;;;;10239852;28;20265;-84
2023/09/07 02:11:36;;;;;;;10.60;7.10;;;14.00;99.90;;;;;;10240802;28;20301;-85
2023/09/07 02:16:39;;;;;;;9.57;7.53;;;13.90;99.90;;;;;;10229299;29;20309;-84
2023/09/07 02:21:41;;;;;;;8.18;7.13;;;13.80;99.90;;;;;;10256464;28;20763;-85
2023/09/07 02:26:45;;;;;;;10.05;8.10;;;13.80;99.90;;;;;;10255464;28;20238;-85
2023/09/07 02:31:48;;;;;;;8.63;7.63;;;13.80;99.90;;;;;;10234003;29;20300;-85
2023/09/07 02:36:51;;;;;;;8.82;6.70;;;13.70;99.90;;;;;;10250965;29;20274;-85
2023/09/07 02:41:53;;;;;;;6.82;6.18;;;13.70;99.90;;;;;;10233215;29;20238;-85
2023/09/07 02:46:56;;;;;;;9.32;7.00;;;13.80;99.90;;;;;;10217942;29;20242;-85
2023/09/07 02:51:59;;;;;;;6.72;5.20;;;13.70;99.90;;;;;;10233032;29;20306;-85
2023/09/07 02:57:02;;;;;;;8.52;7.07;;;13.70;99.90;;;;;;10233004;29;20257;-85
2023/09/07 03:02:05;;;;;;;8.38;7.40;;;13.60;99.90;;;;;;10217261;29;20238;-85
2023/09/07 03:07:09;;;;;;;7.03;6.10;;;13.50;99.90;;;;;;10249889;29;20266;-85
2023/09/07 03:12:12;;;;;;;7.78;7.00;;;13.60;99.90;;;;;;10249931;29;20634;-85
2023/09/07 03:17:16;;;;;;;8.15;7.35;;;13.50;99.90;;;;;;10220498;29;20801;-85
2023/09/07 03:22:19;;;;;;;7.95;6.65;;;13.40;99.90;;;;;;10229915;29;20692;-85
2023/09/07 03:27:23;;;;;;;8.23;7.15;;;13.50;99.90;;;;;;10231877;29;20293;-84
2023/09/07 03:32:28;;;;;;;9.15;7.18;;;13.40;99.90;;;;;;10248402;29;20702;-85
2023/09/07 03:37:31;;;;;;;7.07;6.38;;;13.40;99.90;;;;;;10230698;28;20281;-85
2023/09/07 03:42:33;;;;;;;9.57;7.25;;;13.30;99.90;;;;;;10230798;29;20297;-85
2023/09/07 03:47:38;;;;;;;9.85;7.97;;;13.30;99.90;;;;;;10230910;29;20312;-85
2023/09/07 03:52:40;;;;;;;10.70;7.18;;;13.30;99.90;;;;;;10248589;29;20238;-85
2023/09/07 03:57:43;;;;;;;11.98;7.30;;;13.20;99.90;;;;;;10201788;29;20254;-85
2023/09/07 04:02:47;;;;;;;11.00;7.47;;;13.30;99.90;;;;;;10224056;29;20261;-85
2023/09/07 04:07:50;;;;;;;4.68;4.28;;;13.30;99.90;;;;;;10229723;29;20317;-84
2023/09/07 04:12:53;;;;;;;9.80;7.68;;;13.50;99.90;;;;;;10247794;29;20266;-85
2023/09/07 04:17:56;;;;;;;7.40;6.65;;;13.30;99.90;;;;;;10229783;29;20308;-85
2023/09/07 04:22:58;;;;;;;8.23;6.80;;;13.30;99.90;;;;;;10227376;29;20261;-85
2023/09/07 04:28:01;;;;;;;11.80;8.18;;;13.30;99.90;;;;;;10212737;29;20238;-85
2023/09/07 04:33:04;;;;;;;11.25;7.30;;;13.60;99.90;;;;;;10229452;29;20305;-85
2023/09/07 04:38:07;;;;;;;12.60;6.75;;;13.50;99.90;;;;;;10228571;29;20690;-84
2023/09/07 04:43:10;;;;;;;16.23;7.95;;;13.50;99.90;;;;;;10227579;29;20257;-84
2023/09/07 04:48:12;;;;;;;10.38;7.30;;;13.40;99.90;;;;;;10228460;29;20683;-85
2023/09/07 04:53:15;;;;;;;8.38;7.57;;;13.40;99.90;;;;;;10236922;28;20632;-86
2023/09/07 04:58:18;;;;;;;9.30;6.20;;;13.50;99.90;;;;;;10266104;28;20237;-85
2023/09/07 05:03:21;;;;;;;11.70;7.25;;;13.50;99.90;;;;;;10265125;28;20332;-85
2023/09/07 05:08:27;;;;;;;6.85;6.05;;;14.00;99.90;;;;;;10261257;28;20284;-84
2023/09/07 05:13:30;;;;;;;14.23;9.48;;;14.50;99.90;;;;;;10262874;28;20249;-84
2023/09/07 05:18:35;;;;;;;8.38;4.90;;;14.40;99.90;;;;;;10229572;29;20250;-84
2023/09/07 05:23:42;;;;;;;14.98;9.18;;;14.60;99.90;;;;;;10251121;28;20268;-84
2023/09/07 05:28:44;;;;;;;10.55;7.65;;;14.80;99.90;;;;;;10272108;28;20241;-84
2023/09/07 05:33:49;;;;;;;13.85;9.48;;;14.90;99.90;;;;;;10250390;28;20267;-84
2023/09/07 05:38:51;;;;;;;9.85;7.07;;;15.10;99.90;;;;;;10243973;28;20304;-84
2023/09/07 05:43:54;;;;;;;6.93;5.65;;;15.30;99.90;;;;;;10208728;28;20266;-85
2023/09/07 05:48:57;;;;;;;6.28;4.95;;;15.50;99.90;;;;;;10209180;28;20758;-85
2023/09/07 05:54:00;;;;;;;14.02;6.45;;;15.80;99.90;;;;;;10246478;28;20245;-85
2023/09/07 05:59:04;;;;;;;6.88;6.28;;;16.00;99.90;;;;;;10226197;29;20306;-85
2023/09/07 06:04:07;;;;;;;6.85;6.15;;;16.30;99.90;;;;;;10231529;29;20277;-85
2023/09/07 06:09:11;;;;;;;7.97;7.18;;;16.60;99.90;;;;;;10219255;29;20265;-85
2023/09/07 06:14:14;;;;;;;10.40;7.35;;;16.70;99.90;;;;;;10251945;29;20698;-84
2023/09/07 06:19:16;;;;;;;14.77;8.43;;;16.80;99.90;;;;;;10245205;29;20242;-84
2023/09/07 06:24:20;;;;;;;9.75;5.63;;;16.80;99.90;;;;;;10218513;29;20301;-84
2023/09/07 06:29:23;;;;;;;9.45;7.55;;;17.00;99.90;;;;;;10230046;29;20297;-85
2023/09/07 06:34:26;;;;;;;12.63;10.52;;;17.20;99.90;;;;;;10212880;29;20298;-86
2023/09/07 06:39:28;;;;;;;8.80;7.90;;;17.40;99.90;;;;;;10233088;29;20269;-86
2023/09/07 06:44:34;;;;;;;16.70;12.35;;;17.70;99.90;;;;;;10233488;29;20332;-86
2023/09/07 06:49:40;;;;;;;14.60;10.27;;;17.90;99.90;;;;;;10233122;29;20262;-86
2023/09/07 06:54:43;;;;;;;11.80;8.07;;;18.10;99.90;;;;;;10226332;29;20702;-86
2023/09/07 06:59:46;;;;;;;8.68;6.63;;;18.30;99.90;;;;;;10227541;29;20241;-86
2023/09/07 07:04:48;;;;;;;15.95;9.85;;;18.60;99.90;;;;;;10227708;29;20270;-86
2023/09/07 07:09:52;;;;;;;7.95;5.97;;;18.80;99.90;;;;;;10247840;29;20297;-86
2023/09/07 07:14:55;;;;;;;15.35;9.00;;;19.00;99.90;;;;;;10249422;28;20285;-86
2023/09/07 07:19:58;;;;;;;10.13;7.95;;;19.20;99.90;;;;;;10253461;28;20233;-86
2023/09/07 07:25:05;;;;;;;18.25;6.78;;;19.50;99.90;;;;;;10214544;28;20381;-86
2023/09/07 07:30:08;;;;;;;17.33;11.98;;;19.70;99.90;;;;;;10244352;28;20242;-86
2023/09/07 07:35:14;;;;;;;7.95;5.05;;;19.90;99.90;;;;;;10206164;29;20242;-86
2023/09/07 07:40:18;;;;;;;7.28;5.18;;;20.10;99.90;;;;;;10211811;28;20305;-86
2023/09/07 07:45:21;;;;;;;12.45;7.53;;;20.40;99.90;;;;;;10220271;28;20262;-86
2023/09/07 07:50:25;;;;;;;12.52;7.72;;;20.70;99.90;;;;;;10211795;28;20258;-86
2023/09/07 07:55:28;;;;;;;10.50;8.10;;;20.90;99.90;;;;;;10246578;29;20250;-86
2023/09/07 08:00:31;;;;;;;11.38;7.70;;;21.20;99.90;;;;;;10229703;29;20250;-86
2023/09/07 08:05:34;;;;;;;12.95;10.05;;;21.40;99.90;;;;;;10229515;29;20278;-86
2023/09/07 08:10:38;;;;;;;16.20;11.15;;;21.60;99.90;;;;;;10234467;28;20299;-86
2023/09/07 08:15:42;;;;;;;11.57;9.00;;;21.80;99.90;;;;;;10224435;28;20234;-86
2023/09/07 08:20:47;;;;;;;8.38;4.85;;;22.00;99.60;;;;;;10247278;28;20698;-87
2023/09/07 08:25:54;;;;;;;7.00;5.53;;;22.20;97.50;;;;;;10233043;28;20262;-87
2023/09/07 08:31:00;;;;;;;6.07;4.70;;;22.40;97.40;;;;;;10218202;28;20430;-87
2023/09/07 08:36:05;;;;;;;11.07;6.80;;;22.60;97.40;;;;;;10225913;28;20242;-87
2023/09/07 08:41:08;;;;;;;9.55;6.80;;;22.80;98.70;;;;;;10234240;28;20409;-87
2023/09/07 08:46:17;;;;;;;4.38;3.83;;;23.00;99.50;;;;;;10251941;28;20272;-87
2023/09/07 08:51:22;;;;;;;7.40;5.03;;;23.20;99.40;;;;;;10218317;29;20242;-87
2023/09/07 08:56:25;;;;;;;3.90;3.10;;;23.30;99.90;;;;;;10242924;29;20297;-86
2023/09/07 09:01:31;;;;;;;4.80;4.32;;;23.50;99.90;;;;;;10227354;29;20297;-86
2023/09/07 09:06:34;;;;;;;5.68;4.75;;;23.60;99.90;;;;;;10240444;29;20660;-87
2023/09/07 09:11:36;;;;;;;20.10;7.95;;;23.80;99.90;;;;;;10228905;29;20233;-86
2023/09/07 09:16:39;;;;;;;6.53;5.22;;;23.90;99.90;;;;;;10243534;29;20237;-87
2023/09/07 09:21:44;;;;;;;5.38;4.82;;;24.00;99.90;;;;;;10228759;28;20226;-87
2023/09/07 09:26:47;;;;;;;7.38;5.20;;;24.20;99.90;;;;;;10225843;28;20270;-85
2023/09/07 09:31:51;;;;;;;3.75;3.40;;;24.20;99.90;;;;;;10263946;28;20284;-87
2023/09/07 09:36:54;;;;;;;5.38;4.13;;;24.40;99.90;;;;;;10270079;28;20649;-87
2023/09/07 09:41:56;;;;;;;4.30;3.70;;;24.40;95.30;;;;;;10239282;29;20243;-87
2023/09/07 09:46:59;;;;;;;7.95;5.30;;;24.50;94.90;;;;;;10246975;28;20787;-87
2023/09/07 09:52:04;;;;;;;5.15;4.00;;;24.60;91.10;;;;;;10239313;28;20753;-87
2023/09/07 09:57:06;;;;;;;5.40;3.90;;;24.70;90.90;;;;;;10242414;28;20242;-87
2023/09/07 10:02:10;;;;;;;5.75;4.78;;;24.70;94.70;;;;;;10239659;28;20233;-87
2023/09/07 10:07:12;;;;;;;5.53;5.03;;;24.80;95.70;;;;;;10251180;28;20261;-87
2023/09/07 10:12:15;;;;;;;4.75;4.28;;;24.80;93.30;;;;;;10254593;28;20253;-88
2023/09/07 10:17:22;;;;;;;5.57;4.70;;;24.90;99.90;;;;;;10259645;28;20879;-88
2023/09/07 10:22:25;;;;;;;7.22;4.80;;;25.00;99.90;;;;;;10233262;28;20246;-88
2023/09/07 10:27:37;;;;;;;5.97;4.60;;;25.00;99.90;;;;;;10227709;29;20282;-85
2023/09/07 10:32:40;;;;;;;4.03;3.63;;;25.10;99.90;;;;;;10233104;29;20238;-85
2023/09/07 10:37:46;;;;;;;5.40;4.85;;;25.10;99.90;;;;;;10233762;28;20269;-85
2023/09/07 10:42:49;;;;;;;5.47;4.22;;;25.10;99.90;;;;;;10225755;29;20234;-85
2023/09/07 10:47:52;;;;;;;3.92;3.63;;;25.10;99.10;;;;;;10246883;28;20321;-85
2023/09/07 10:52:55;;;;;;;4.20;3.80;;;25.10;93.20;;;;;;10247947;29;20241;-85
2023/09/07 10:57:57;;;;;;;8.55;4.63;;;25.10;93.40;;;;;;10249051;29;20246;-85
2023/09/07 11:03:07;;;;;;;4.53;3.95;;;25.10;91.70;;;;;;10231409;29;20238;-85
2023/09/07 11:08:10;;;;;;;5.38;4.90;;;25.20;88.50;;;;;;10281811;28;20327;-85
2023/09/07 11:13:12;;;;;;;5.20;4.70;;;25.20;94.70;;;;;;10257603;28;20258;-85
2023/09/07 11:18:21;;;;;;;6.57;4.30;;;25.30;93.40;;;;;;10282404;28;20654;-87
2023/09/07 11:23:24;;;;;;;5.20;3.78;;;25.30;91.40;;;;;;10280072;28;20245;-87
2023/09/07 11:28:30;;;;;;;4.85;4.10;;;25.30;88.30;;;;;;10287339;28;20302;-87
2023/09/07 11:33:33;;;;;;;4.40;3.63;;;25.30;89.50;;;;;;10268429;28;20245;-86
2023/09/07 11:38:37;;;;;;;5.95;5.35;;;25.30;88.00;;;;;;10274315;28;20324;-85
2023/09/07 11:43:41;;;;;;;7.00;5.50;;;25.30;87.00;;;;;;10230664;29;20241;-86
2023/09/07 11:48:44;;;;;;;4.45;3.78;;;25.30;90.80;;;;;;10248255;29;20261;-86
2023/09/07 11:53:47;;;;;;;3.92;3.53;;;25.40;89.60;;;;;;10232946;29;20667;-86
2023/09/07 11:58:49;;;;;;;4.72;3.97;;;25.40;94.70;;;;;;10234452;28;20253;-86
2023/09/07 12:03:52;;;;;;;5.15;4.65;;;25.40;90.80;;;;;;10238705;28;20234;-86
2023/09/07 12:09:03;;;;;;;5.13;4.63;;;25.40;89.80;;;;;;10247851;28;20407;-86
2023/09/07 12:14:05;;;;;;;4.40;4.00;;;25.40;90.30;;;;;;10216206;29;20261;-86
2023/09/07 12:19:08;;;;;;;7.35;4.05;;;25.50;87.90;;;;;;10228851;28;20274;-86
2023/09/07 12:24:12;;;;;;;12.80;5.30;;;25.50;87.40;;;;;;10225048;29;20250;-86
2023/09/07 12:29:14;;;;;;;4.22;3.83;;;25.50;87.30;;;;;;10237163;28;20233;-86
2023/09/07 12:34:17;;;;;;;4.43;4.00;;;25.50;87.80;;;;;;10229252;29;20301;-87
2023/09/07 12:39:19;;;;;;;4.60;3.40;;;25.60;89.20;;;;;;10245774;28;20250;-86
2023/09/07 12:44:22;;;;;;;7.32;3.53;;;25.60;89.80;;;;;;10201369;29;20290;-86
2023/09/07 12:49:25;;;;;;;5.53;3.97;;;25.50;90.90;;;;;;10232896;29;20639;-87
2023/09/07 12:54:27;;;;;;;2.70;2.50;;;25.50;90.00;;;;;;10212562;29;20763;-86
2023/09/07 12:59:30;;;;;;;3.55;3.25;;;25.50;91.20;;;;;;10243208;29;20270;-86
2023/09/07 13:04:32;;;;;;;4.60;4.07;;;25.50;89.10;;;;;;10224678;29;20230;-86
2023/09/07 13:09:35;;;;;;;4.35;3.95;;;25.50;90.10;;;;;;10242925;28;20288;-86
2023/09/07 13:14:37;;;;;;;3.30;3.00;;;25.50;88.30;;;;;;10243561;28;20297;-85
2023/09/07 13:19:41;;;;;;;9.27;3.78;;;25.50;87.80;;;;;;10243229;29;20305;-85
2023/09/07 13:24:43;;;;;;;4.03;3.63;;;25.60;90.10;;;;;;10211750;29;20262;-85
2023/09/07 13:29:46;;;;;;;5.13;3.95;;;25.60;89.00;;;;;;10244965;29;20297;-86
2023/09/07 13:34:49;;;;;;;5.75;3.25;;;25.60;89.90;;;;;;10203118;29;20310;-86
2023/09/07 13:39:51;;;;;;;4.65;3.53;;;25.60;89.50;;;;;;10205383;29;20309;-86
2023/09/07 13:44:54;;;;;;;4.13;3.78;;;25.60;90.40;;;;;;10225641;29;20257;-86
2023/09/07 13:49:57;;;;;;;3.13;2.83;;;25.70;86.80;;;;;;10224945;29;20301;-85
2023/09/07 13:54:59;;;;;;;3.80;3.50;;;25.60;89.40;;;;;;10244365;29;20629;-86
2023/09/07 14:00:04;;;;;;;7.88;3.78;;;25.60;90.80;;;;;;10195509;29;20269;-86
2023/09/07 14:05:08;;;;;;;5.03;4.07;;;25.60;89.50;;;;;;10226728;29;20356;-87
2023/09/07 14:10:14;;;;;;;4.53;3.95;;;25.60;88.20;;;;;;10241893;29;20293;-86
2023/09/07 14:15:17;;;;;;;5.88;4.22;;;25.60;86.20;;;;;;10226945;29;20320;-86
2023/09/07 14:20:19;;;;;;;4.10;3.63;;;25.60;85.10;;;;;;10243092;29;20310;-86
2023/09/07 14:25:22;;;;;;;6.40;3.53;;;25.60;88.20;;;;;;10231449;29;20265;-86
2023/09/07 14:30:25;;;;;;;5.35;4.22;;;25.50;86.80;;;;;;10276861;28;20310;-86
2023/09/07 14:35:28;;;;;;;3.60;2.83;;;25.50;87.30;;;;;;10251385;29;20250;-85
2023/09/07 14:40:30;;;;;;;3.60;3.30;;;25.50;85.30;;;;;;10201366;29;20250;-85
2023/09/07 14:45:32;;;;;;;3.75;3.38;;;25.50;84.20;;;;;;10249353;29;20359;-85
2023/09/07 14:50:35;;;;;;;9.77;4.88;;;25.50;82.10;;;;;;10250480;29;20238;-85
2023/09/07 14:55:38;;;;;;;7.53;4.88;;;25.50;86.70;;;;;;10230593;29;20297;-85
2023/09/07 15:00:40;;;;;;;7.57;4.20;;;25.50;87.20;;;;;;10249417;29;20289;-86
2023/09/07 15:05:43;;;;;;;5.03;4.20;;;25.50;86.80;;;;;;10244764;28;20278;-86
2023/09/07 15:10:45;;;;;;;4.13;3.72;;;25.40;86.70;;;;;;10228079;29;20285;-86
2023/09/07 15:15:48;;;;;;;13.40;5.35;;;25.50;83.00;;;;;;10216535;29;20237;-86
2023/09/07 15:20:51;;;;;;;5.28;3.60;;;25.40;82.00;;;;;;10247830;29;20675;-86
2023/09/07 15:25:54;;;;;;;4.10;3.70;;;25.40;83.50;;;;;;10247154;29;20265;-86
2023/09/07 15:30:57;;;;;;;4.43;4.03;;;25.30;83.60;;;;;;10229493;29;20300;-86
2023/09/07 15:35:59;;;;;;;3.85;3.13;;;25.30;84.40;;;;;;10249293;28;20242;-88
2023/09/07 15:41:04;;;;;;;8.25;4.13;;;25.20;83.40;;;;;;10248527;29;20625;-86
2023/09/07 15:46:08;;;;;;;7.90;4.45;;;25.20;84.20;;;;;;10230890;29;20707;-86
2023/09/07 15:51:10;;;;;;;5.13;4.35;;;25.10;84.70;;;;;;10251262;28;20751;-86
2023/09/07 15:56:13;;;;;;;3.40;3.10;;;25.10;84.00;;;;;;10244773;28;20737;-86
2023/09/07 16:01:16;;;;;;;4.10;3.75;;;25.00;83.40;;;;;;9885614;29;10000264;-86
2023/09/07 16:06:18;;;;;;;6.25;5.72;;;25.00;84.90;;;;;;9903070;28;9999865;-87
2023/09/07 16:16:56;;;;;;;12.05;4.00;;;24.80;87.30;;;;;;10246992;23;20289;-86
2023/09/07 16:22:00;;;;;;;5.18;4.30;;;24.70;81.20;;;;;;10281057;28;20226;-86
2023/09/07 16:27:02;;;;;;;5.05;4.55;;;24.50;83.00;;;;;;10286333;28;20233;-87
2023/09/07 16:32:06;;;;;;;10.65;4.15;;;24.40;84.10;;;;;;10274775;23;20307;-96
2023/09/07 16:37:09;;;;;;;8.90;4.00;;;24.20;83.80;;;;;;10228553;29;20242;-96
2023/09/07 16:42:17;;;;;;;10.90;5.45;;;23.90;86.40;;;;;;10241324;29;20235;-96
2023/09/07 16:47:28;;;;;;;6.82;4.22;;;23.60;92.40;;;;;;9900835;23;10000346;-84
2023/09/07 16:52:31;;;;;;;20.23;5.40;;;23.30;92.60;;;;;;10200193;29;20659;-84
2023/09/07 16:57:34;;;;;;;8.63;5.20;;;23.10;92.10;;;;;;10205940;29;20687;-84
2023/09/07 17:02:37;;;;;;;11.02;4.95;;;22.90;92.00;;;;;;10205026;29;20243;-84
2023/09/07 17:07:40;;;;;;;7.72;4.50;;;22.70;91.90;;;;;;10205720;29;20274;-84
2023/09/07 17:12:42;;;;;;;7.43;4.55;;;22.40;93.60;;;;;;10188383;29;20245;-84
2023/09/07 17:17:48;;;;;;;6.50;4.93;;;22.20;95.10;;;;;;10205643;29;20282;-83
2023/09/07 17:22:51;;;;;;;6.72;5.20;;;22.00;96.30;;;;;;10187964;29;20239;-83
2023/09/07 17:27:54;;;;;;;13.35;5.20;;;21.70;96.80;;;;;;10186392;29;20647;-83
2023/09/07 17:32:59;;;;;;;8.80;4.57;;;21.40;97.70;;;;;;10160461;29;20377;-83
2023/09/07 17:38:01;;;;;;;18.70;5.93;;;21.10;99.10;;;;;;10193599;29;20309;-83
2023/09/07 17:43:04;;;;;;;13.25;5.07;;;20.90;99.90;;;;;;10205328;29;20246;-83
2023/09/07 17:48:07;;;;;;;12.40;5.53;;;20.50;99.90;;;;;;10186657;29;20274;-83
2023/09/07 17:53:09;;;;;;;16.30;5.70;;;20.30;99.90;;;;;;10187663;29;20242;-83
2023/09/07 17:58:12;;;;;;;17.80;6.00;;;20.00;99.90;;;;;;10189175;29;20270;-83
2023/09/07 18:03:15;;;;;;;12.18;5.10;;;19.80;99.90;;;;;;10213253;29;20266;-83
2023/09/07 18:08:18;;;;;;;19.98;6.63;;;19.70;99.90;;;;;;10212405;29;20317;-83
2023/09/07 18:13:20;;;;;;;12.73;6.78;;;19.60;99.90;;;;;;10210266;29;20290;-83
2023/09/07 18:18:23;;;;;;;11.25;4.70;;;19.40;99.90;;;;;;10211646;29;20315;-83
2023/09/07 18:23:26;;;;;;;9.60;5.65;;;19.20;99.90;;;;;;10195287;29;20715;-83
2023/09/07 18:28:30;;;;;;;20.63;6.43;;;19.00;99.90;;;;;;10194376;29;20329;-83
2023/09/07 18:33:34;;;;;;;17.40;6.43;;;18.70;99.90;;;;;;10211423;29;20246;-83
2023/09/07 18:38:36;;;;;;;12.57;6.47;;;18.50;99.90;;;;;;10187922;29;20302;-83
2023/09/07 18:43:39;;;;;;;10.32;5.60;;;18.40;99.90;;;;;;10209480;29;20246;-83
2023/09/07 18:48:42;;;;;;;5.63;4.47;;;18.30;99.90;;;;;;10178525;29;20809;-83
2023/09/07 18:53:44;;;;;;;5.50;4.50;;;18.60;99.90;;;;;;10202603;29;20680;-83
2023/09/07 18:58:47;;;;;;;26.83;6.88;;;18.80;99.90;;;;;;10209180;29;20286;-83
2023/09/07 19:03:54;;;;;;;11.70;5.30;;;19.00;99.90;;;;;;10211591;29;20247;-83
2023/09/07 19:08:56;;;;;;;11.75;5.97;;;18.90;99.90;;;;;;10210582;29;20262;-84
2023/09/07 19:13:59;;;;;;;8.40;4.50;;;18.90;99.90;;;;;;10211563;29;20642;-84
2023/09/07 19:19:02;;;;;;;6.38;4.70;;;18.80;99.90;;;;;;10193925;29;20279;-84
2023/09/07 19:24:06;;;;;;;15.52;7.25;;;18.70;99.90;;;;;;10208141;29;20325;-84
2023/09/07 19:29:10;;;;;;;10.48;4.80;;;18.60;99.90;;;;;;10191900;29;20411;-84
2023/09/07 19:34:12;;;;;;;17.98;6.25;;;18.70;99.90;;;;;;10210586;29;20275;-83
2023/09/07 19:39:15;;;;;;;19.67;6.57;;;18.70;99.90;;;;;;10188626;29;20246;-84
2023/09/07 19:44:20;;;;;;;16.33;6.35;;;18.50;99.90;;;;;;10192362;29;20259;-84
2023/09/07 19:49:23;;;;;;;17.27;6.68;;;18.30;99.90;;;;;;10205843;29;20317;-84
2023/09/07 19:54:25;;;;;;;14.43;6.55;;;18.40;99.90;;;;;;10206198;29;20243;-84
2023/09/07 19:59:28;;;;;;;16.38;6.40;;;18.20;99.90;;;;;;10207972;29;20243;-84
2023/09/07 20:04:32;;;;;;;12.70;5.88;;;18.10;99.90;;;;;;10218185;29;20257;-84
2023/09/07 20:09:35;;;;;;;10.55;6.07;;;17.90;99.90;;;;;;10235052;29;20324;-84
2023/09/07 20:14:38;;;;;;;13.82;7.32;;;17.90;99.90;;;;;;10226074;29;20273;-84
2023/09/07 20:19:42;;;;;;;9.77;6.10;;;17.70;99.90;;;;;;10241554;28;20711;-84
2023/09/07 20:24:45;;;;;;;7.07;5.90;;;17.70;99.90;;;;;;10231235;29;20242;-84
2023/09/07 20:29:53;;;;;;;19.15;6.75;;;17.70;99.90;;;;;;10202487;29;20235;-84
2023/09/07 20:34:55;;;;;;;10.95;6.05;;;17.70;99.90;;;;;;10206430;29;20251;-83
2023/09/07 20:39:58;;;;;;;13.13;6.78;;;17.80;99.90;;;;;;10204915;29;20770;-83
2023/09/07 20:45:00;;;;;;;9.93;6.57;;;17.80;99.90;;;;;;10203254;29;20778;-83
2023/09/07 20:50:03;;;;;;;12.60;5.45;;;17.60;99.90;;;;;;10206088;29;20290;-83
2023/09/07 20:55:06;;;;;;;15.90;7.93;;;17.70;99.90;;;;;;10205717;29;20246;-83
2023/09/07 21:00:09;;;;;;;12.98;5.85;;;17.70;99.90;;;;;;10205095;29;20290;-83
2023/09/07 21:05:12;;;;;;;9.77;6.60;;;17.50;99.90;;;;;;10189427;29;20254;-83
2023/09/07 21:10:15;;;;;;;8.40;5.45;;;17.40;99.90;;;;;;10186932;29;20767;-83
2023/09/07 21:15:18;;;;;;;7.60;6.15;;;17.30;99.90;;;;;;10201880;29;20289;-83
2023/09/07 21:20:21;;;;;;;12.52;6.68;;;17.30;99.90;;;;;;10203696;29;20294;-83
2023/09/07 21:25:23;;;;;;;6.30;3.88;;;17.20;99.90;;;;;;10203979;29;20243;-83
2023/09/07 21:30:28;;;;;;;9.90;7.03;;;17.20;99.90;;;;;;10202203;29;20263;-83
2023/09/07 21:35:31;;;;;;;8.30;7.50;;;17.40;99.90;;;;;;10210164;29;20254;-83
2023/09/07 21:40:33;;;;;;;10.07;7.65;;;17.20;99.90;;;;;;10213880;29;20298;-83
2023/09/07 21:45:36;;;;;;;8.50;7.68;;;17.00;99.90;;;;;;10195838;29;20722;-83
2023/09/07 21:50:40;;;;;;;8.23;6.28;;;16.90;99.90;;;;;;10219350;29;20254;-83
2023/09/07 21:55:42;;;;;;;14.35;8.65;;;17.00;99.90;;;;;;10205096;29;20244;-84
2023/09/07 22:00:45;;;;;;;12.25;7.97;;;17.00;99.90;;;;;;10196926;29;20618;-84
2023/09/07 22:05:54;;;;;;;9.05;8.13;;;16.90;99.90;;;;;;10228706;29;20250;-83
2023/09/07 22:10:57;;;;;;;8.32;7.43;;;16.80;99.90;;;;;;10203557;29;20274;-84
2023/09/07 22:15:59;;;;;;;10.13;8.70;;;16.60;99.90;;;;;;10210663;29;20235;-83
2023/09/07 22:21:03;;;;;;;8.57;7.28;;;16.60;99.90;;;;;;10213154;29;20643;-83
2023/09/07 22:26:05;;;;;;;10.77;6.63;;;16.60;99.90;;;;;;10212789;29;20247;-82
2023/09/07 22:31:08;;;;;;;7.78;6.45;;;16.50;99.90;;;;;;10179609;29;20790;-83
2023/09/07 22:36:11;;;;;;;7.93;7.18;;;16.50;99.90;;;;;;10212088;29;20890;-82
2023/09/07 22:41:13;;;;;;;7.82;6.32;;;16.40;99.90;;;;;;10212728;29;20246;-82
2023/09/07 22:46:16;;;;;;;10.88;7.30;;;16.30;99.90;;;;;;10209743;29;20302;-83
2023/09/07 22:51:18;;;;;;;7.22;6.53;;;16.30;99.90;;;;;;10211124;29;20318;-83
2023/09/07 22:56:21;;;;;;;9.98;7.40;;;16.30;99.90;;;;;;10211780;29;20693;-83
2023/09/07 23:01:24;;;;;;;7.53;6.82;;;16.20;99.90;;;;;;10210766;29;20298;-83
2023/09/07 23:06:26;;;;;;;9.25;7.65;;;16.20;99.90;;;;;;10211576;29;20602;-83
2023/09/07 23:11:29;;;;;;;7.70;6.93;;;16.20;99.90;;;;;;10209923;29;20322;-83
2023/09/07 23:16:35;;;;;;;8.75;7.40;;;16.20;99.90;;;;;;10210574;29;20243;-83
2023/09/07 23:21:38;;;;;;;9.82;7.80;;;16.20;99.90;;;;;;10210775;29;20270;-82
2023/09/07 23:26:41;;;;;;;10.65;8.73;;;15.90;99.90;;;;;;10210401;29;20239;-82
2023/09/07 23:31:43;;;;;;;8.55;7.75;;;15.90;99.90;;;;;;10208775;29;20679;-83
2023/09/07 23:36:46;;;;;;;9.38;8.00;;;15.90;99.90;;;;;;10210043;29;20607;-83
2023/09/07 23:41:49;;;;;;;8.95;8.15;;;15.80;99.90;;;;;;10210185;29;20275;-83
2023/09/07 23:46:53;;;;;;;11.43;7.88;;;15.60;99.90;;;;;;10208549;29;20325;-82
2023/09/07 23:51:56;;;;;;;9.32;7.93;;;15.70;99.90;;;;;;10209826;29;20246;-83
2023/09/07 23:56:59;;;;;;;12.02;8.02;;;15.70;99.90;;;;;;10209211;29;20684;-83
